sensor_id;sensor_type;location;lat;lon;timestamp;temperature;humidity
46340;DHT22;47273;49.274;8.708;2022-10-19T03:33:02;15.40;99.90
46340;DHT22;47273;49.274;8.708;2022-10-19T03:35:28;15.40;99.90
46340;DHT22;47273;49.274;8.708;2022-10-19T03:37:54;15.50;99.90
46340;DHT22;47273;49.274;8.708;2022-10-19T03:40:19;15.50;99.90
46340;DHT22;47273;49.274;8.708;2022-10-19T03:42:45;15.40;99.90
46340;DHT22;47273;49.274;8.708;2022-10-19T03:45:11;15.40;99.90
46340;DHT22;47273;49.274;8.708;2022-10-19T03:47:36;15.40;99.90
46340;DHT22;47273;49.274;8.708;2022-10-19T03:50:02;15.40;99.90
46340;DHT22;47273;49.274;8.708;2022-10-19T03:52:30;15.40;99.90
46340;DHT22;47273;49.274;8.708;2022-10-19T03:54:55;15.40;99.90
46340;DHT22;47273;49.274;8.708;2022-10-19T03:57:21;15.40;99.90
46340;DHT22;47273;49.274;8.708;2022-10-19T03:59:47;15.50;99.90
46340;DHT22;47273;49.274;8.708;2022-10-19T04:02:17;15.50;99.90
46340;DHT22;47273;49.274;8.708;2022-10-19T04:04:47;15.40;99.90
46340;DHT22;47273;49.274;8.708;2022-10-19T04:07:12;15.40;99.90
46340;DHT22;47273;49.274;8.708;2022-10-19T04:09:38;15.40;99.90
46340;DHT22;47273;49.274;8.708;2022-10-19T04:12:04;15.40;99.90
46340;DHT22;47273;49.274;8.708;2022-10-19T04:14:30;15.40;99.90
46340;DHT22;47273;49.274;8.708;2022-10-19T04:16:55;15.40;99.90
46340;DHT22;47273;49.274;8.708;2022-10-19T04:19:36;15.40;99.90
46340;DHT22;47273;49.274;8.708;2022-10-19T04:22:02;15.40;99.90
46340;DHT22;47273;49.274;8.708;2022-10-19T04:24:28;15.40;99.90
46340;DHT22;47273;49.274;8.708;2022-10-19T04:26:56;15.40;99.90
46340;DHT22;47273;49.274;8.708;2022-10-19T04:29:25;15.50;99.90
46340;DHT22;47273;49.274;8.708;2022-10-19T04:31:51;15.50;99.90
46340;DHT22;47273;49.274;8.708;2022-10-19T04:34:18;15.40;99.90
46340;DHT22;47273;49.274;8.708;2022-10-19T04:36:44;15.40;99.90
46340;DHT22;47273;49.274;8.708;2022-10-19T04:39:10;15.50;99.90
46340;DHT22;47273;49.274;8.708;2022-10-19T04:41:37;15.50;99.90
46340;DHT22;47273;49.274;8.708;2022-10-19T04:44:15;15.50;99.90
46340;DHT22;47273;49.274;8.708;2022-10-19T04:47:21;15.60;99.90
46340;DHT22;47273;49.274;8.708;2022-10-19T04:50:18;15.50;99.90
46340;DHT22;47273;49.274;8.708;2022-10-19T04:52:44;15.50;99.90
46340;DHT22;47273;49.274;8.708;2022-10-19T04:55:10;15.50;99.90
46340;DHT22;47273;49.274;8.708;2022-10-19T04:57:36;15.50;99.90
46340;DHT22;47273;49.274;8.708;2022-10-19T05:00:02;15.50;99.90
46340;DHT22;47273;49.274;8.708;2022-10-19T05:03:00;15.50;99.90
46340;DHT22;47273;49.274;8.708;2022-10-19T05:05:26;15.40;99.90
46340;DHT22;47273;49.274;8.708;2022-10-19T05:08:11;15.40;99.90
46340;DHT22;47273;49.274;8.708;2022-10-19T05:10:37;15.40;99.90
46340;DHT22;47273;49.274;8.708;2022-10-19T05:13:13;15.40;99.90
46340;DHT22;47273;49.274;8.708;2022-10-19T05:15:39;15.30;99.90
46340;DHT22;47273;49.274;8.708;2022-10-19T05:18:39;15.30;99.90
46340;DHT22;47273;49.274;8.708;2022-10-19T05:21:06;15.30;99.90
46340;DHT22;47273;49.274;8.708;2022-10-19T05:23:37;15.30;99.90
46340;DHT22;47273;49.274;8.708;2022-10-19T05:26:16;15.30;99.90
46340;DHT22;47273;49.274;8.708;2022-10-19T05:28:46;15.30;99.90
46340;DHT22;47273;49.274;8.708;2022-10-19T05:31:31;15.30;99.90
46340;DHT22;47273;49.274;8.708;2022-10-19T05:34:05;15.30;99.90
46340;DHT22;47273;49.274;8.708;2022-10-19T05:36:40;15.30;99.90
46340;DHT22;47273;49.274;8.708;2022-10-19T05:39:07;15.30;99.90
46340;DHT22;47273;49.274;8.708;2022-10-19T05:41:34;15.30;99.90
46340;DHT22;47273;49.274;8.708;2022-10-19T05:44:01;15.30;99.90
46340;DHT22;47273;49.274;8.708;2022-10-19T05:46:29;15.30;99.90
46340;DHT22;47273;49.274;8.708;2022-10-19T05:48:57;15.30;99.90
46340;DHT22;47273;49.274;8.708;2022-10-19T05:51:25;15.30;99.90
46340;DHT22;47273;49.274;8.708;2022-10-19T05:53:52;15.30;99.90
46340;DHT22;47273;49.274;8.708;2022-10-19T05:56:20;15.30;99.90
46340;DHT22;47273;49.274;8.708;2022-10-19T05:58:47;15.30;99.90
46340;DHT22;47273;49.274;8.708;2022-10-19T06:01:14;15.30;99.90
46340;DHT22;47273;49.274;8.708;2022-10-19T06:03:40;15.30;99.90
46340;DHT22;47273;49.274;8.708;2022-10-19T06:06:07;15.20;99.90
46340;DHT22;47273;49.274;8.708;2022-10-19T06:08:34;15.10;99.90
46340;DHT22;47273;49.274;8.708;2022-10-19T06:11:14;15.20;99.90
46340;DHT22;47273;49.274;8.708;2022-10-19T06:13:41;15.20;99.90
46340;DHT22;47273;49.274;8.708;2022-10-19T06:16:08;15.20;99.90
46340;DHT22;47273;49.274;8.708;2022-10-19T06:18:35;15.10;99.90
46340;DHT22;47273;49.274;8.708;2022-10-19T06:21:06;15.10;99.90
46340;DHT22;47273;49.274;8.708;2022-10-19T06:23:32;15.20;99.90
46340;DHT22;47273;49.274;8.708;2022-10-19T06:26:01;15.10;99.90
46340;DHT22;47273;49.274;8.708;2022-10-19T06:28:27;15.20;99.90
46340;DHT22;47273;49.274;8.708;2022-10-19T06:30:52;15.20;99.90
46340;DHT22;47273;49.274;8.708;2022-10-19T06:33:18;15.20;99.90
46340;DHT22;47273;49.274;8.708;2022-10-19T06:35:44;15.20;99.90
46340;DHT22;47273;49.274;8.708;2022-10-19T06:38:09;15.20;99.90
46340;DHT22;47273;49.274;8.708;2022-10-19T06:40:35;15.20;99.90
46340;DHT22;47273;49.274;8.708;2022-10-19T06:43:01;15.20;99.90
46340;DHT22;47273;49.274;8.708;2022-10-19T06:45:27;15.20;99.90
46340;DHT22;47273;49.274;8.708;2022-10-19T06:47:52;15.20;99.90
46340;DHT22;47273;49.274;8.708;2022-10-19T06:50:18;15.20;99.90
46340;DHT22;47273;49.274;8.708;2022-10-19T06:52:45;15.20;99.90
46340;DHT22;47273;49.274;8.708;2022-10-19T06:55:11;15.20;99.90
46340;DHT22;47273;49.274;8.708;2022-10-19T06:57:37;15.20;99.90
46340;DHT22;47273;49.274;8.708;2022-10-19T07:00:04;15.30;99.90
46340;DHT22;47273;49.274;8.708;2022-10-19T07:02:31;15.30;99.90
46340;DHT22;47273;49.274;8.708;2022-10-19T07:04:57;15.40;99.90
46340;DHT22;47273;49.274;8.708;2022-10-19T07:07:22;15.30;99.90
46340;DHT22;47273;49.274;8.708;2022-10-19T07:09:48;15.40;99.90
46340;DHT22;47273;49.274;8.708;2022-10-19T07:12:14;15.30;99.90
46340;DHT22;47273;49.274;8.708;2022-10-19T07:14:40;15.40;99.90
46340;DHT22;47273;49.274;8.708;2022-10-19T07:17:06;15.30;99.90
46340;DHT22;47273;49.274;8.708;2022-10-19T07:19:32;15.40;99.90
46340;DHT22;47273;49.274;8.708;2022-10-19T07:21:58;15.40;99.90
46340;DHT22;47273;49.274;8.708;2022-10-19T07:24:24;15.40;99.90
46340;DHT22;47273;49.274;8.708;2022-10-19T07:26:50;15.40;99.90
46340;DHT22;47273;49.274;8.708;2022-10-19T07:29:16;15.40;99.90
46340;DHT22;47273;49.274;8.708;2022-10-19T07:32:00;15.40;99.90
46340;DHT22;47273;49.274;8.708;2022-10-19T07:34:26;15.40;99.90
46340;DHT22;47273;49.274;8.708;2022-10-19T07:36:53;15.50;99.90
46340;DHT22;47273;49.274;8.708;2022-10-19T07:39:19;15.40;99.90
46340;DHT22;47273;49.274;8.708;2022-10-19T07:41:46;15.50;99.90
46340;DHT22;47273;49.274;8.708;2022-10-19T07:44:13;15.50;99.90
46340;DHT22;47273;49.274;8.708;2022-10-19T07:46:50;15.50;99.90
46340;DHT22;47273;49.274;8.708;2022-10-19T07:49:16;15.50;99.90
46340;DHT22;47273;49.274;8.708;2022-10-19T07:51:44;15.50;99.90
46340;DHT22;47273;49.274;8.708;2022-10-19T07:54:10;15.50;99.90
46340;DHT22;47273;49.274;8.708;2022-10-19T08:00:03;15.60;99.90
46340;DHT22;47273;49.274;8.708;2022-10-19T08:02:29;15.60;99.90
46340;DHT22;47273;49.274;8.708;2022-10-19T08:05:13;15.60;99.90
46340;DHT22;47273;49.274;8.708;2022-10-19T08:07:39;15.70;99.90
46340;DHT22;47273;49.274;8.708;2022-10-19T08:10:05;15.70;99.90
46340;DHT22;47273;49.274;8.708;2022-10-19T08:12:33;15.70;99.90
46340;DHT22;47273;49.274;8.708;2022-10-19T08:15:04;15.70;99.90
46340;DHT22;47273;49.274;8.708;2022-10-19T08:18:03;15.80;99.90
46340;DHT22;47273;49.274;8.708;2022-10-19T08:20:43;15.80;99.90
46340;DHT22;47273;49.274;8.708;2022-10-19T08:23:09;15.80;99.90
46340;DHT22;47273;49.274;8.708;2022-10-19T08:28:30;15.80;99.90
46340;DHT22;47273;49.274;8.708;2022-10-19T08:33:44;15.90;99.90
46340;DHT22;47273;49.274;8.708;2022-10-19T08:36:25;15.90;99.90
46340;DHT22;47273;49.274;8.708;2022-10-19T08:39:04;15.90;99.90
46340;DHT22;47273;49.274;8.708;2022-10-19T08:49:57;16.00;99.90
46340;DHT22;47273;49.274;8.708;2022-10-19T08:52:30;16.00;99.90
46340;DHT22;47273;49.274;8.708;2022-10-19T08:55:02;16.10;99.90
46340;DHT22;47273;49.274;8.708;2022-10-19T08:57:41;16.10;99.90
46340;DHT22;47273;49.274;8.708;2022-10-19T09:08:10;16.20;99.90
46340;DHT22;47273;49.274;8.708;2022-10-19T09:10:41;16.20;99.90
46340;DHT22;47273;49.274;8.708;2022-10-19T09:15:50;16.30;99.90
46340;DHT22;47273;49.274;8.708;2022-10-19T09:18:29;16.20;99.90
46340;DHT22;47273;49.274;8.708;2022-10-19T09:21:35;16.30;99.90
46340;DHT22;47273;49.274;8.708;2022-10-19T09:27:39;16.40;99.90
46340;DHT22;47273;49.274;8.708;2022-10-19T09:30:27;16.40;99.90
46340;DHT22;47273;49.274;8.708;2022-10-19T09:33:00;16.50;99.90
46340;DHT22;47273;49.274;8.708;2022-10-19T09:35:35;16.50;99.90
46340;DHT22;47273;49.274;8.708;2022-10-19T09:38:06;16.50;99.90
46340;DHT22;47273;49.274;8.708;2022-10-19T09:40:33;16.60;99.90
46340;DHT22;47273;49.274;8.708;2022-10-19T09:43:06;16.60;99.90
46340;DHT22;47273;49.274;8.708;2022-10-19T09:48:27;16.60;99.90
46340;DHT22;47273;49.274;8.708;2022-10-19T09:51:00;16.60;99.90
46340;DHT22;47273;49.274;8.708;2022-10-19T09:53:28;16.60;99.90
46340;DHT22;47273;49.274;8.708;2022-10-19T09:56:21;16.60;99.90
46340;DHT22;47273;49.274;8.708;2022-10-19T09:58:52;16.70;99.90
46340;DHT22;47273;49.274;8.708;2022-10-19T10:01:39;16.70;99.90
46340;DHT22;47273;49.274;8.708;2022-10-19T10:04:06;16.70;99.90
46340;DHT22;47273;49.274;8.708;2022-10-19T10:06:33;16.70;99.90
46340;DHT22;47273;49.274;8.708;2022-10-19T10:09:27;16.70;99.90
46340;DHT22;47273;49.274;8.708;2022-10-19T10:11:57;16.70;99.90
46340;DHT22;47273;49.274;8.708;2022-10-19T10:17:21;16.80;99.90
46340;DHT22;47273;49.274;8.708;2022-10-19T10:22:27;16.70;99.90
46340;DHT22;47273;49.274;8.708;2022-10-19T10:24:54;16.80;99.90
46340;DHT22;47273;49.274;8.708;2022-10-19T10:29:55;16.80;99.90
46340;DHT22;47273;49.274;8.708;2022-10-19T10:32:21;16.90;99.90
46340;DHT22;47273;49.274;8.708;2022-10-19T10:35:07;16.90;99.90
46340;DHT22;47273;49.274;8.708;2022-10-19T10:37:45;16.90;99.90
46340;DHT22;47273;49.274;8.708;2022-10-19T10:40:22;17.00;99.90
46340;DHT22;47273;49.274;8.708;2022-10-19T10:42:50;17.00;99.90
46340;DHT22;47273;49.274;8.708;2022-10-19T10:45:23;17.10;99.90
46340;DHT22;47273;49.274;8.708;2022-10-19T10:47:53;17.10;99.90
46340;DHT22;47273;49.274;8.708;2022-10-19T10:50:25;17.10;99.90
46340;DHT22;47273;49.274;8.708;2022-10-19T10:52:59;17.10;99.90
46340;DHT22;47273;49.274;8.708;2022-10-19T10:55:25;17.20;99.90
46340;DHT22;47273;49.274;8.708;2022-10-19T10:57:58;17.20;99.90
46340;DHT22;47273;49.274;8.708;2022-10-19T11:00:28;17.20;99.90
46340;DHT22;47273;49.274;8.708;2022-10-19T11:06:40;17.30;99.90
46340;DHT22;47273;49.274;8.708;2022-10-19T11:09:11;17.40;99.90
46340;DHT22;47273;49.274;8.708;2022-10-19T11:11:45;17.50;99.90
46340;DHT22;47273;49.274;8.708;2022-10-19T11:16:52;17.60;99.90
46340;DHT22;47273;49.274;8.708;2022-10-19T11:19:36;17.60;99.90
46340;DHT22;47273;49.274;8.708;2022-10-19T11:22:09;17.70;99.90
46340;DHT22;47273;49.274;8.708;2022-10-19T11:25:26;17.70;99.90
46340;DHT22;47273;49.274;8.708;2022-10-19T11:33:53;17.90;99.90
46340;DHT22;47273;49.274;8.708;2022-10-19T11:36:49;17.90;99.90
46340;DHT22;47273;49.274;8.708;2022-10-19T11:47:57;18.10;99.90
46340;DHT22;47273;49.274;8.708;2022-10-19T11:50:58;18.20;99.90
46340;DHT22;47273;49.274;8.708;2022-10-19T11:53:35;18.20;99.90
46340;DHT22;47273;49.274;8.708;2022-10-19T11:58:56;18.30;99.90
46340;DHT22;47273;49.274;8.708;2022-10-19T12:02:22;18.30;99.90
46340;DHT22;47273;49.274;8.708;2022-10-19T12:07:32;18.30;99.90
46340;DHT22;47273;49.274;8.708;2022-10-19T12:12:55;18.30;99.90
46340;DHT22;47273;49.274;8.708;2022-10-19T12:15:40;18.40;99.90
46340;DHT22;47273;49.274;8.708;2022-10-19T12:20:57;18.40;99.90
46340;DHT22;47273;49.274;8.708;2022-10-19T12:23:36;18.30;99.90
46340;DHT22;47273;49.274;8.708;2022-10-19T12:26:06;18.20;99.90
46340;DHT22;47273;49.274;8.708;2022-10-19T12:29:02;18.30;99.90
46340;DHT22;47273;49.274;8.708;2022-10-19T12:31:30;18.30;99.90
46340;DHT22;47273;49.274;8.708;2022-10-19T12:34:18;18.30;99.90
46340;DHT22;47273;49.274;8.708;2022-10-19T12:39:12;18.40;99.90
46340;DHT22;47273;49.274;8.708;2022-10-19T12:47:10;18.20;99.90
46340;DHT22;47273;49.274;8.708;2022-10-19T12:49:47;18.20;99.90
46340;DHT22;47273;49.274;8.708;2022-10-19T12:58:03;18.20;99.90
46340;DHT22;47273;49.274;8.708;2022-10-19T13:00:59;18.30;99.90
46340;DHT22;47273;49.274;8.708;2022-10-19T13:03:47;18.40;99.90
46340;DHT22;47273;49.274;8.708;2022-10-19T13:08:59;19.00;99.90
46340;DHT22;47273;49.274;8.708;2022-10-19T13:11:26;19.30;99.90
46340;DHT22;47273;49.274;8.708;2022-10-19T13:17:08;19.60;99.90
46340;DHT22;47273;49.274;8.708;2022-10-19T13:19:35;19.70;99.90
46340;DHT22;47273;49.274;8.708;2022-10-19T13:24:28;19.90;99.90
46340;DHT22;47273;49.274;8.708;2022-10-19T13:32:39;19.40;99.90
46340;DHT22;47273;49.274;8.708;2022-10-19T13:35:33;19.30;99.90
46340;DHT22;47273;49.274;8.708;2022-10-19T13:40:36;19.40;99.90
46340;DHT22;47273;49.274;8.708;2022-10-19T13:43:03;19.30;99.90
46340;DHT22;47273;49.274;8.708;2022-10-19T13:45:28;19.30;99.90
46340;DHT22;47273;49.274;8.708;2022-10-19T13:48:05;19.40;99.90
46340;DHT22;47273;49.274;8.708;2022-10-19T13:50:42;19.50;99.90
46340;DHT22;47273;49.274;8.708;2022-10-19T13:53:39;19.50;99.90
46340;DHT22;47273;49.274;8.708;2022-10-19T14:04:35;19.60;99.90
46340;DHT22;47273;49.274;8.708;2022-10-19T14:07:24;19.60;99.90
46340;DHT22;47273;49.274;8.708;2022-10-19T14:10:11;19.60;99.90
46340;DHT22;47273;49.274;8.708;2022-10-19T14:12:41;19.60;99.90
46340;DHT22;47273;49.274;8.708;2022-10-19T14:15:25;19.50;99.90
46340;DHT22;47273;49.274;8.708;2022-10-19T14:17:57;19.40;99.90
46340;DHT22;47273;49.274;8.708;2022-10-19T14:22:52;19.40;99.90
46340;DHT22;47273;49.274;8.708;2022-10-19T14:25:20;19.40;99.90
46340;DHT22;47273;49.274;8.708;2022-10-19T14:27:50;19.40;99.90
46340;DHT22;47273;49.274;8.708;2022-10-19T14:32:50;19.10;99.90
46340;DHT22;47273;49.274;8.708;2022-10-19T14:35:32;19.10;99.90
46340;DHT22;47273;49.274;8.708;2022-10-19T14:37:59;19.00;99.90
46340;DHT22;47273;49.274;8.708;2022-10-19T14:40:28;18.90;99.90
46340;DHT22;47273;49.274;8.708;2022-10-19T14:42:56;18.90;99.90
46340;DHT22;47273;49.274;8.708;2022-10-19T14:45:30;18.80;99.90
46340;DHT22;47273;49.274;8.708;2022-10-19T14:48:01;18.70;99.90
46340;DHT22;47273;49.274;8.708;2022-10-19T14:50:48;18.80;99.90
46340;DHT22;47273;49.274;8.708;2022-10-19T14:53:25;18.80;99.90
46340;DHT22;47273;49.274;8.708;2022-10-19T14:55:57;18.80;99.90
46340;DHT22;47273;49.274;8.708;2022-10-19T14:58:35;18.70;99.90
46340;DHT22;47273;49.274;8.708;2022-10-19T15:01:05;18.60;99.90
46340;DHT22;47273;49.274;8.708;2022-10-19T15:03:31;18.50;99.90
46340;DHT22;47273;49.274;8.708;2022-10-19T15:06:03;18.40;99.90
46340;DHT22;47273;49.274;8.708;2022-10-19T15:08:39;18.50;99.90
46340;DHT22;47273;49.274;8.708;2022-10-19T15:14:05;18.40;99.90
46340;DHT22;47273;49.274;8.708;2022-10-19T15:16:42;18.40;99.90
46340;DHT22;47273;49.274;8.708;2022-10-19T15:19:27;18.40;99.90
46340;DHT22;47273;49.274;8.708;2022-10-19T15:22:17;18.40;99.90
46340;DHT22;47273;49.274;8.708;2022-10-19T15:30:03;18.40;99.90
46340;DHT22;47273;49.274;8.708;2022-10-19T15:32:32;18.30;99.90
46340;DHT22;47273;49.274;8.708;2022-10-19T15:37:46;18.30;99.90
46340;DHT22;47273;49.274;8.708;2022-10-19T15:40:21;18.20;99.90
46340;DHT22;47273;49.274;8.708;2022-10-19T15:42:47;18.10;99.90
46340;DHT22;47273;49.274;8.708;2022-10-19T15:45:35;18.10;99.90
46340;DHT22;47273;49.274;8.708;2022-10-19T15:48:56;18.00;99.90
46340;DHT22;47273;49.274;8.708;2022-10-19T15:53:57;18.00;99.90
46340;DHT22;47273;49.274;8.708;2022-10-19T15:56:25;17.90;99.90
46340;DHT22;47273;49.274;8.708;2022-10-19T15:58:52;17.90;99.90
46340;DHT22;47273;49.274;8.708;2022-10-19T16:01:21;17.90;99.90
46340;DHT22;47273;49.274;8.708;2022-10-19T16:03:48;17.80;99.90
46340;DHT22;47273;49.274;8.708;2022-10-19T16:06:15;17.80;99.90
46340;DHT22;47273;49.274;8.708;2022-10-19T16:08:41;17.70;99.90
46340;DHT22;47273;49.274;8.708;2022-10-19T16:11:11;17.60;99.90
46340;DHT22;47273;49.274;8.708;2022-10-19T16:13:37;17.50;99.90
46340;DHT22;47273;49.274;8.708;2022-10-19T16:16:05;17.50;99.90
46340;DHT22;47273;49.274;8.708;2022-10-19T16:18:31;17.40;99.90
46340;DHT22;47273;49.274;8.708;2022-10-19T16:20:57;17.30;99.90
46340;DHT22;47273;49.274;8.708;2022-10-19T16:23:23;17.30;99.90
46340;DHT22;47273;49.274;8.708;2022-10-19T16:25:50;17.20;99.90
46340;DHT22;47273;49.274;8.708;2022-10-19T16:28:17;17.20;99.90
46340;DHT22;47273;49.274;8.708;2022-10-19T16:30:44;17.10;99.90
46340;DHT22;47273;49.274;8.708;2022-10-19T16:33:09;17.10;99.90
46340;DHT22;47273;49.274;8.708;2022-10-19T16:35:38;17.00;99.90
46340;DHT22;47273;49.274;8.708;2022-10-19T16:38:11;17.00;99.90
46340;DHT22;47273;49.274;8.708;2022-10-19T16:41:00;16.90;99.90
46340;DHT22;47273;49.274;8.708;2022-10-19T16:43:26;16.90;99.90
46340;DHT22;47273;49.274;8.708;2022-10-19T16:45:51;16.80;99.90
46340;DHT22;47273;49.274;8.708;2022-10-19T16:48:32;16.70;99.90
46340;DHT22;47273;49.274;8.708;2022-10-19T16:51:29;16.60;99.90
46340;DHT22;47273;49.274;8.708;2022-10-19T16:54:05;16.60;99.90
46340;DHT22;47273;49.274;8.708;2022-10-19T16:56:47;16.50;99.90
46340;DHT22;47273;49.274;8.708;2022-10-19T16:59:36;16.50;99.90
46340;DHT22;47273;49.274;8.708;2022-10-19T17:02:02;16.30;99.90
46340;DHT22;47273;49.274;8.708;2022-10-19T17:04:30;16.40;99.90
46340;DHT22;47273;49.274;8.708;2022-10-19T17:07:03;16.30;99.90
46340;DHT22;47273;49.274;8.708;2022-10-19T17:09:46;16.30;99.90
46340;DHT22;47273;49.274;8.708;2022-10-19T17:12:48;16.20;99.90
46340;DHT22;47273;49.274;8.708;2022-10-19T17:15:14;16.20;99.90
46340;DHT22;47273;49.274;8.708;2022-10-19T17:17:40;16.10;99.90
46340;DHT22;47273;49.274;8.708;2022-10-19T17:20:09;16.10;99.90
46340;DHT22;47273;49.274;8.708;2022-10-19T17:22:35;16.00;99.90
46340;DHT22;47273;49.274;8.708;2022-10-19T17:25:05;16.10;99.90
46340;DHT22;47273;49.274;8.708;2022-10-19T17:27:34;16.10;99.90
46340;DHT22;47273;49.274;8.708;2022-10-19T17:30:00;16.00;99.90
46340;DHT22;47273;49.274;8.708;2022-10-19T17:32:34;16.00;99.90
46340;DHT22;47273;49.274;8.708;2022-10-19T17:35:00;15.90;99.90
46340;DHT22;47273;49.274;8.708;2022-10-19T17:37:25;15.90;99.90
46340;DHT22;47273;49.274;8.708;2022-10-19T17:39:51;15.70;99.90
46340;DHT22;47273;49.274;8.708;2022-10-19T17:42:16;15.60;99.90
46340;DHT22;47273;49.274;8.708;2022-10-19T17:44:42;15.60;99.90
46340;DHT22;47273;49.274;8.708;2022-10-19T17:47:08;15.60;99.90
46340;DHT22;47273;49.274;8.708;2022-10-19T17:49:33;15.70;99.90
46340;DHT22;47273;49.274;8.708;2022-10-19T17:51:59;15.60;99.90
46340;DHT22;47273;49.274;8.708;2022-10-19T17:54:25;15.60;99.90
46340;DHT22;47273;49.274;8.708;2022-10-19T17:56:54;15.50;99.90
46340;DHT22;47273;49.274;8.708;2022-10-19T17:59:21;15.50;99.90
46340;DHT22;47273;49.274;8.708;2022-10-19T18:01:47;15.50;99.90
46340;DHT22;47273;49.274;8.708;2022-10-19T18:04:12;15.50;99.90
46340;DHT22;47273;49.274;8.708;2022-10-19T18:06:38;15.50;99.90
46340;DHT22;47273;49.274;8.708;2022-10-19T18:09:06;15.40;99.90
46340;DHT22;47273;49.274;8.708;2022-10-19T18:11:35;15.40;99.90
46340;DHT22;47273;49.274;8.708;2022-10-19T18:14:03;15.40;99.90
46340;DHT22;47273;49.274;8.708;2022-10-19T18:16:33;15.40;99.90
46340;DHT22;47273;49.274;8.708;2022-10-19T18:19:07;15.30;99.90
46340;DHT22;47273;49.274;8.708;2022-10-19T18:21:35;15.30;99.90
46340;DHT22;47273;49.274;8.708;2022-10-19T18:24:06;15.30;99.90
46340;DHT22;47273;49.274;8.708;2022-10-19T18:26:33;15.20;99.90
46340;DHT22;47273;49.274;8.708;2022-10-19T18:29:00;15.20;99.90
46340;DHT22;47273;49.274;8.708;2022-10-19T18:31:28;15.20;99.90
46340;DHT22;47273;49.274;8.708;2022-10-19T18:34:03;15.10;99.90
46340;DHT22;47273;49.274;8.708;2022-10-19T18:36:30;15.10;99.90
46340;DHT22;47273;49.274;8.708;2022-10-19T18:39:19;15.20;99.90
46340;DHT22;47273;49.274;8.708;2022-10-19T18:41:52;15.10;99.90
46340;DHT22;47273;49.274;8.708;2022-10-19T18:44:21;15.10;99.90
46340;DHT22;47273;49.274;8.708;2022-10-19T18:46:47;15.00;99.90
46340;DHT22;47273;49.274;8.708;2022-10-19T18:49:13;15.00;99.90
46340;DHT22;47273;49.274;8.708;2022-10-19T18:51:41;15.00;99.90
46340;DHT22;47273;49.274;8.708;2022-10-19T18:54:09;15.00;99.90
46340;DHT22;47273;49.274;8.708;2022-10-19T18:56:38;15.00;99.90
46340;DHT22;47273;49.274;8.708;2022-10-19T18:59:13;15.00;99.90
46340;DHT22;47273;49.274;8.708;2022-10-19T19:01:39;15.00;99.90
46340;DHT22;47273;49.274;8.708;2022-10-19T19:04:08;15.00;99.90
46340;DHT22;47273;49.274;8.708;2022-10-19T19:06:34;14.90;99.90
46340;DHT22;47273;49.274;8.708;2022-10-19T19:09:03;14.90;99.90
46340;DHT22;47273;49.274;8.708;2022-10-19T19:11:31;14.90;99.90
46340;DHT22;47273;49.274;8.708;2022-10-19T19:14:06;14.90;99.90
46340;DHT22;47273;49.274;8.708;2022-10-19T19:16:34;14.90;99.90
46340;DHT22;47273;49.274;8.708;2022-10-19T19:19:00;14.80;99.90
46340;DHT22;47273;49.274;8.708;2022-10-19T19:21:27;14.80;99.90
46340;DHT22;47273;49.274;8.708;2022-10-19T19:23:54;14.70;99.90
46340;DHT22;47273;49.274;8.708;2022-10-19T19:26:23;14.70;99.90
46340;DHT22;47273;49.274;8.708;2022-10-19T19:28:49;14.70;99.90
46340;DHT22;47273;49.274;8.708;2022-10-19T19:31:14;14.70;99.90
46340;DHT22;47273;49.274;8.708;2022-10-19T19:33:44;14.70;99.90
46340;DHT22;47273;49.274;8.708;2022-10-19T19:36:12;14.70;99.90
46340;DHT22;47273;49.274;8.708;2022-10-19T19:38:39;14.70;99.90
46340;DHT22;47273;49.274;8.708;2022-10-19T19:41:07;14.60;99.90
46340;DHT22;47273;49.274;8.708;2022-10-19T19:43:35;14.60;99.90
46340;DHT22;47273;49.274;8.708;2022-10-19T19:46:06;14.60;99.90
46340;DHT22;47273;49.274;8.708;2022-10-19T19:48:37;14.60;99.90
46340;DHT22;47273;49.274;8.708;2022-10-19T19:51:09;14.50;99.90
46340;DHT22;47273;49.274;8.708;2022-10-19T19:53:36;14.50;99.90
46340;DHT22;47273;49.274;8.708;2022-10-19T19:56:02;14.40;99.90
46340;DHT22;47273;49.274;8.708;2022-10-19T19:58:28;14.40;99.90
46340;DHT22;47273;49.274;8.708;2022-10-19T20:00:54;14.50;99.90
46340;DHT22;47273;49.274;8.708;2022-10-19T20:03:20;14.50;99.90
46340;DHT22;47273;49.274;8.708;2022-10-19T20:05:46;14.40;99.90
46340;DHT22;47273;49.274;8.708;2022-10-19T20:08:12;14.40;99.90
46340;DHT22;47273;49.274;8.708;2022-10-19T20:10:41;14.30;99.90
46340;DHT22;47273;49.274;8.708;2022-10-19T20:13:07;14.40;99.90
46340;DHT22;47273;49.274;8.708;2022-10-19T20:15:36;14.40;99.90
46340;DHT22;47273;49.274;8.708;2022-10-19T20:18:03;14.40;99.90
46340;DHT22;47273;49.274;8.708;2022-10-19T20:20:29;14.40;99.90
46340;DHT22;47273;49.274;8.708;2022-10-19T20:22:54;14.30;99.90
46340;DHT22;47273;49.274;8.708;2022-10-19T20:25:20;14.30;99.90
46340;DHT22;47273;49.274;8.708;2022-10-19T20:27:46;14.30;99.90
